Visit the IPS Meteostar Home Page IPSM Logan International Airport FORECAST

Boston, Massachusetts

73

68

62

68

75

80

82

80

52
52
52
45
48
60
62
62

3 miles away at Logan International Airport 20:54 GMT

Weather:

 Clear 

Wind:

N 10 Gusting to 21 mph

Temperature:

73 ° F

Pressure:

30.01

Dew Point:

45 ° F

Relative Humidity:

36

Feels Like:

73 ° F

Visibility:

10 miles


Aviation Observations:

KBOS 162054Z 35009G18KT 10SM FEW065 FEW140 23/07 A2999 RMK AO2 SLP154 T02280072 56007 =

National Weather Service Forecast:
Suffolk
415 PM EDT MON SEP 16 2019

TONIGHT

Mostly clear. Lows in the lower 50s. Northwest winds 5 to 10 mph.

TUESDAY

Sunny. Highs in the upper 60s. North winds 5 to 10 mph, becoming northeast in the afternoon.

TUESDAY NIGHT

Partly cloudy in the evening, then becoming mostly cloudy. Lows in the lower 50s. Northeast winds 5 to 10 mph.

WEDNESDAY

Partly sunny. Highs in the lower 60s. Northeast winds 10 to 15 mph.

WEDNESDAY NIGHT

Clear. Lows in the mid 40s. Northeast winds 5 to 10 mph.

THURSDAY

Sunny. Highs in the upper 60s.

THURSDAY NIGHT

Clear. Lows in the upper 40s.

FRIDAY

Sunny. Highs in the mid 70s.

FRIDAY NIGHT

Mostly clear. Not as cool with lows around 60.

SATURDAY

Sunny. Highs around 80.

SATURDAY NIGHT

Mostly clear. Lows in the lower 60s.

SUNDAY

Sunny. Highs in the lower 80s.

SUNDAY NIGHT

Mostly clear. Lows in the lower 60s.

MONDAY

Mostly sunny. Highs around 80.


Visit the IPS Meteostar Home Page